sensor_id;sensor_type;location;lat;lon;timestamp;temperature;humidity
12720;DHT22;6424;48.520;11.228;2023-08-30T00:00:55;12.40;99.90
12720;DHT22;6424;48.520;11.228;2023-08-30T00:03:36;12.40;99.90
12720;DHT22;6424;48.520;11.228;2023-08-30T00:06:17;12.40;99.90
12720;DHT22;6424;48.520;11.228;2023-08-30T00:08:58;12.40;99.90
12720;DHT22;6424;48.520;11.228;2023-08-30T00:11:39;12.30;99.90
12720;DHT22;6424;48.520;11.228;2023-08-30T00:14:19;12.30;99.90
12720;DHT22;6424;48.520;11.228;2023-08-30T00:17:00;12.30;99.90
12720;DHT22;6424;48.520;11.228;2023-08-30T00:19:41;12.30;99.90
12720;DHT22;6424;48.520;11.228;2023-08-30T00:22:22;12.30;99.90
12720;DHT22;6424;48.520;11.228;2023-08-30T00:25:04;12.30;99.90
12720;DHT22;6424;48.520;11.228;2023-08-30T00:27:45;12.30;99.90
12720;DHT22;6424;48.520;11.228;2023-08-30T00:30:25;12.30;99.90
12720;DHT22;6424;48.520;11.228;2023-08-30T00:33:06;12.30;99.90
12720;DHT22;6424;48.520;11.228;2023-08-30T00:35:55;12.30;99.90
12720;DHT22;6424;48.520;11.228;2023-08-30T00:38:21;12.30;99.90
12720;DHT22;6424;48.520;11.228;2023-08-30T00:41:02;12.30;99.90
12720;DHT22;6424;48.520;11.228;2023-08-30T00:43:43;12.30;99.90
12720;DHT22;6424;48.520;11.228;2023-08-30T00:46:24;12.20;99.90
12720;DHT22;6424;48.520;11.228;2023-08-30T00:49:05;12.30;99.90
12720;DHT22;6424;48.520;11.228;2023-08-30T00:51:46;12.30;99.90
12720;DHT22;6424;48.520;11.228;2023-08-30T00:54:27;12.30;99.90
12720;DHT22;6424;48.520;11.228;2023-08-30T00:57:08;12.20;99.90
12720;DHT22;6424;48.520;11.228;2023-08-30T00:59:51;12.30;99.90
12720;DHT22;6424;48.520;11.228;2023-08-30T01:02:19;12.30;99.90
12720;DHT22;6424;48.520;11.228;2023-08-30T01:04:59;12.30;99.90
12720;DHT22;6424;48.520;11.228;2023-08-30T01:07:40;12.30;99.90
12720;DHT22;6424;48.520;11.228;2023-08-30T01:10:27;12.30;99.90
12720;DHT22;6424;48.520;11.228;2023-08-30T01:13:13;12.30;99.90
12720;DHT22;6424;48.520;11.228;2023-08-30T01:15:57;12.20;99.90
12720;DHT22;6424;48.520;11.228;2023-08-30T01:18:39;12.30;99.90
12720;DHT22;6424;48.520;11.228;2023-08-30T01:21:09;12.20;99.90
12720;DHT22;6424;48.520;11.228;2023-08-30T01:24:03;12.20;99.90
12720;DHT22;6424;48.520;11.228;2023-08-30T01:27:09;12.20;99.90
12720;DHT22;6424;48.520;11.228;2023-08-30T01:29:50;12.20;99.90
12720;DHT22;6424;48.520;11.228;2023-08-30T01:32:31;12.20;99.90
12720;DHT22;6424;48.520;11.228;2023-08-30T01:35:14;12.20;99.90
12720;DHT22;6424;48.520;11.228;2023-08-30T01:38:02;12.20;99.90
12720;DHT22;6424;48.520;11.228;2023-08-30T01:40:44;12.30;99.90
12720;DHT22;6424;48.520;11.228;2023-08-30T01:43:26;12.30;99.90
12720;DHT22;6424;48.520;11.228;2023-08-30T01:46:09;12.20;99.90
12720;DHT22;6424;48.520;11.228;2023-08-30T01:48:51;12.30;99.90
12720;DHT22;6424;48.520;11.228;2023-08-30T01:51:33;12.30;99.90
12720;DHT22;6424;48.520;11.228;2023-08-30T01:54:17;12.30;99.90
12720;DHT22;6424;48.520;11.228;2023-08-30T01:56:59;12.30;99.90
12720;DHT22;6424;48.520;11.228;2023-08-30T01:59:39;12.30;99.90
12720;DHT22;6424;48.520;11.228;2023-08-30T02:02:20;12.30;99.90
12720;DHT22;6424;48.520;11.228;2023-08-30T02:05:01;12.30;99.90
12720;DHT22;6424;48.520;11.228;2023-08-30T02:08:00;12.30;99.90
12720;DHT22;6424;48.520;11.228;2023-08-30T02:10:58;12.30;99.90
12720;DHT22;6424;48.520;11.228;2023-08-30T02:13:41;12.40;99.90
12720;DHT22;6424;48.520;11.228;2023-08-30T02:16:27;12.40;99.90
12720;DHT22;6424;48.520;11.228;2023-08-30T02:19:09;12.40;99.90
12720;DHT22;6424;48.520;11.228;2023-08-30T02:21:36;12.30;99.90
12720;DHT22;6424;48.520;11.228;2023-08-30T02:24:18;12.30;99.90
12720;DHT22;6424;48.520;11.228;2023-08-30T02:26:58;12.30;99.90
12720;DHT22;6424;48.520;11.228;2023-08-30T02:29:39;12.30;99.90
12720;DHT22;6424;48.520;11.228;2023-08-30T02:32:20;12.30;99.90
12720;DHT22;6424;48.520;11.228;2023-08-30T02:35:02;12.30;99.90
12720;DHT22;6424;48.520;11.228;2023-08-30T02:37:42;12.30;99.90
12720;DHT22;6424;48.520;11.228;2023-08-30T02:40:09;12.30;99.90
12720;DHT22;6424;48.520;11.228;2023-08-30T02:42:50;12.30;99.90
12720;DHT22;6424;48.520;11.228;2023-08-30T02:45:30;12.40;99.90
12720;DHT22;6424;48.520;11.228;2023-08-30T02:48:11;12.30;99.90
12720;DHT22;6424;48.520;11.228;2023-08-30T02:50:52;12.30;99.90
12720;DHT22;6424;48.520;11.228;2023-08-30T02:53:33;12.30;99.90
12720;DHT22;6424;48.520;11.228;2023-08-30T02:56:13;12.30;99.90
12720;DHT22;6424;48.520;11.228;2023-08-30T02:58:54;12.30;99.90
12720;DHT22;6424;48.520;11.228;2023-08-30T03:01:36;12.30;99.90
12720;DHT22;6424;48.520;11.228;2023-08-30T03:04:16;12.30;99.90
12720;DHT22;6424;48.520;11.228;2023-08-30T03:06:43;12.30;99.90
12720;DHT22;6424;48.520;11.228;2023-08-30T03:09:08;12.30;99.90
12720;DHT22;6424;48.520;11.228;2023-08-30T03:11:49;12.30;99.90
12720;DHT22;6424;48.520;11.228;2023-08-30T03:14:30;12.30;99.90
12720;DHT22;6424;48.520;11.228;2023-08-30T03:17:11;12.30;99.90
12720;DHT22;6424;48.520;11.228;2023-08-30T03:19:52;12.30;99.90
12720;DHT22;6424;48.520;11.228;2023-08-30T03:22:36;12.30;99.90
12720;DHT22;6424;48.520;11.228;2023-08-30T03:25:16;12.30;99.90
12720;DHT22;6424;48.520;11.228;2023-08-30T03:27:57;12.30;99.90
12720;DHT22;6424;48.520;11.228;2023-08-30T03:30:38;12.30;99.90
12720;DHT22;6424;48.520;11.228;2023-08-30T03:33:19;12.30;99.90
12720;DHT22;6424;48.520;11.228;2023-08-30T03:35:59;12.30;99.90
12720;DHT22;6424;48.520;11.228;2023-08-30T03:38:40;12.30;99.90
12720;DHT22;6424;48.520;11.228;2023-08-30T03:41:21;12.30;99.90
12720;DHT22;6424;48.520;11.228;2023-08-30T03:44:02;12.30;99.90
12720;DHT22;6424;48.520;11.228;2023-08-30T03:46:43;12.30;99.90
12720;DHT22;6424;48.520;11.228;2023-08-30T03:49:24;12.40;99.90
12720;DHT22;6424;48.520;11.228;2023-08-30T03:52:05;12.40;99.90
12720;DHT22;6424;48.520;11.228;2023-08-30T03:54:45;12.40;99.90
12720;DHT22;6424;48.520;11.228;2023-08-30T03:57:11;12.40;99.90
12720;DHT22;6424;48.520;11.228;2023-08-30T03:59:52;12.40;99.90
12720;DHT22;6424;48.520;11.228;2023-08-30T04:02:33;12.40;99.90
12720;DHT22;6424;48.520;11.228;2023-08-30T04:05:13;12.40;99.90
12720;DHT22;6424;48.520;11.228;2023-08-30T04:07:54;12.40;99.90
12720;DHT22;6424;48.520;11.228;2023-08-30T04:10:36;12.40;99.90
12720;DHT22;6424;48.520;11.228;2023-08-30T04:13:16;12.40;99.90
12720;DHT22;6424;48.520;11.228;2023-08-30T04:15:57;12.30;99.90
12720;DHT22;6424;48.520;11.228;2023-08-30T04:18:39;12.30;99.90
12720;DHT22;6424;48.520;11.228;2023-08-30T04:21:20;12.30;99.90
12720;DHT22;6424;48.520;11.228;2023-08-30T04:24:00;12.20;99.90
12720;DHT22;6424;48.520;11.228;2023-08-30T04:26:41;12.20;99.90
12720;DHT22;6424;48.520;11.228;2023-08-30T04:29:07;12.20;99.90
12720;DHT22;6424;48.520;11.228;2023-08-30T04:31:33;12.20;99.90
12720;DHT22;6424;48.520;11.228;2023-08-30T04:34:13;12.20;99.90
12720;DHT22;6424;48.520;11.228;2023-08-30T04:36:56;12.20;99.90
12720;DHT22;6424;48.520;11.228;2023-08-30T04:39:37;12.10;99.90
12720;DHT22;6424;48.520;11.228;2023-08-30T04:42:18;12.10;99.90
12720;DHT22;6424;48.520;11.228;2023-08-30T04:44:58;12.10;99.90
12720;DHT22;6424;48.520;11.228;2023-08-30T04:47:27;12.10;99.90
12720;DHT22;6424;48.520;11.228;2023-08-30T04:50:08;12.10;99.90
12720;DHT22;6424;48.520;11.228;2023-08-30T04:52:49;12.10;99.90
12720;DHT22;6424;48.520;11.228;2023-08-30T04:55:30;12.10;99.90
12720;DHT22;6424;48.520;11.228;2023-08-30T04:58:11;12.10;99.90
12720;DHT22;6424;48.520;11.228;2023-08-30T05:00:51;12.10;99.90
12720;DHT22;6424;48.520;11.228;2023-08-30T05:03:32;12.10;99.90
12720;DHT22;6424;48.520;11.228;2023-08-30T05:06:14;12.10;99.90
12720;DHT22;6424;48.520;11.228;2023-08-30T05:08:56;12.10;99.90
12720;DHT22;6424;48.520;11.228;2023-08-30T05:11:38;12.10;99.90
12720;DHT22;6424;48.520;11.228;2023-08-30T05:14:20;12.10;99.90
12720;DHT22;6424;48.520;11.228;2023-08-30T05:17:00;12.20;99.90
12720;DHT22;6424;48.520;11.228;2023-08-30T05:19:41;12.20;99.90
12720;DHT22;6424;48.520;11.228;2023-08-30T05:22:22;12.20;99.90
12720;DHT22;6424;48.520;11.228;2023-08-30T05:24:48;12.20;99.90
12720;DHT22;6424;48.520;11.228;2023-08-30T05:27:29;12.30;99.90
12720;DHT22;6424;48.520;11.228;2023-08-30T05:30:10;12.30;99.90
12720;DHT22;6424;48.520;11.228;2023-08-30T05:32:51;12.30;99.90
12720;DHT22;6424;48.520;11.228;2023-08-30T05:35:31;12.30;99.90
12720;DHT22;6424;48.520;11.228;2023-08-30T05:38:12;12.40;99.90
12720;DHT22;6424;48.520;11.228;2023-08-30T05:40:53;12.40;99.90
12720;DHT22;6424;48.520;11.228;2023-08-30T05:43:19;12.50;99.90
12720;DHT22;6424;48.520;11.228;2023-08-30T05:45:59;12.50;99.90
12720;DHT22;6424;48.520;11.228;2023-08-30T05:48:43;12.50;99.90
12720;DHT22;6424;48.520;11.228;2023-08-30T05:51:23;12.50;99.90
12720;DHT22;6424;48.520;11.228;2023-08-30T05:54:04;12.60;99.90
12720;DHT22;6424;48.520;11.228;2023-08-30T05:56:45;12.60;99.90
12720;DHT22;6424;48.520;11.228;2023-08-30T05:59:26;12.60;99.90
12720;DHT22;6424;48.520;11.228;2023-08-30T06:02:07;12.60;99.90
12720;DHT22;6424;48.520;11.228;2023-08-30T06:04:47;12.70;99.90
12720;DHT22;6424;48.520;11.228;2023-08-30T06:07:28;12.70;99.90
12720;DHT22;6424;48.520;11.228;2023-08-30T06:10:09;12.70;99.90
12720;DHT22;6424;48.520;11.228;2023-08-30T06:12:50;12.80;99.90
12720;DHT22;6424;48.520;11.228;2023-08-30T06:15:31;12.80;99.90
12720;DHT22;6424;48.520;11.228;2023-08-30T06:17:57;12.90;99.90
12720;DHT22;6424;48.520;11.228;2023-08-30T06:20:42;12.90;99.90
12720;DHT22;6424;48.520;11.228;2023-08-30T06:23:22;13.00;99.90
12720;DHT22;6424;48.520;11.228;2023-08-30T06:26:03;13.00;99.90
12720;DHT22;6424;48.520;11.228;2023-08-30T06:28:44;13.10;99.90
12720;DHT22;6424;48.520;11.228;2023-08-30T06:31:25;13.10;99.90
12720;DHT22;6424;48.520;11.228;2023-08-30T06:34:06;13.10;99.90
12720;DHT22;6424;48.520;11.228;2023-08-30T06:36:47;13.20;99.90
12720;DHT22;6424;48.520;11.228;2023-08-30T06:39:35;13.20;99.90
12720;DHT22;6424;48.520;11.228;2023-08-30T06:42:16;13.30;99.90
12720;DHT22;6424;48.520;11.228;2023-08-30T06:44:57;13.30;99.90
12720;DHT22;6424;48.520;11.228;2023-08-30T06:47:38;13.30;99.90
12720;DHT22;6424;48.520;11.228;2023-08-30T06:50:19;13.30;99.90
12720;DHT22;6424;48.520;11.228;2023-08-30T06:53:00;13.20;99.90
12720;DHT22;6424;48.520;11.228;2023-08-30T06:55:41;13.30;99.90
12720;DHT22;6424;48.520;11.228;2023-08-30T06:58:21;13.30;99.90
12720;DHT22;6424;48.520;11.228;2023-08-30T07:01:02;13.40;99.90
12720;DHT22;6424;48.520;11.228;2023-08-30T07:03:43;13.40;99.90
12720;DHT22;6424;48.520;11.228;2023-08-30T07:06:10;13.50;99.90
12720;DHT22;6424;48.520;11.228;2023-08-30T07:08:50;13.50;99.90
12720;DHT22;6424;48.520;11.228;2023-08-30T07:11:31;13.60;99.90
12720;DHT22;6424;48.520;11.228;2023-08-30T07:14:12;13.70;99.90
12720;DHT22;6424;48.520;11.228;2023-08-30T07:16:54;13.70;99.90
12720;DHT22;6424;48.520;11.228;2023-08-30T07:19:35;13.80;99.90
12720;DHT22;6424;48.520;11.228;2023-08-30T07:22:01;13.90;99.90
12720;DHT22;6424;48.520;11.228;2023-08-30T07:24:27;14.00;99.90
12720;DHT22;6424;48.520;11.228;2023-08-30T07:26:53;14.10;99.90
12720;DHT22;6424;48.520;11.228;2023-08-30T07:29:34;14.20;99.90
12720;DHT22;6424;48.520;11.228;2023-08-30T07:32:14;14.40;99.90
12720;DHT22;6424;48.520;11.228;2023-08-30T07:34:56;14.50;99.90
12720;DHT22;6424;48.520;11.228;2023-08-30T07:37:36;14.70;99.90
12720;DHT22;6424;48.520;11.228;2023-08-30T07:40:17;14.90;99.90
12720;DHT22;6424;48.520;11.228;2023-08-30T07:42:58;15.00;99.90
12720;DHT22;6424;48.520;11.228;2023-08-30T07:45:39;15.10;99.90
12720;DHT22;6424;48.520;11.228;2023-08-30T07:48:19;15.10;99.90
12720;DHT22;6424;48.520;11.228;2023-08-30T07:51:01;15.30;99.90
12720;DHT22;6424;48.520;11.228;2023-08-30T07:53:42;15.40;99.90
12720;DHT22;6424;48.520;11.228;2023-08-30T07:56:22;15.50;99.90
12720;DHT22;6424;48.520;11.228;2023-08-30T07:59:03;15.50;99.90
12720;DHT22;6424;48.520;11.228;2023-08-30T08:01:44;15.60;99.90
12720;DHT22;6424;48.520;11.228;2023-08-30T08:04:25;15.60;99.90
12720;DHT22;6424;48.520;11.228;2023-08-30T08:06:52;15.70;99.90
12720;DHT22;6424;48.520;11.228;2023-08-30T08:09:32;15.70;99.90
12720;DHT22;6424;48.520;11.228;2023-08-30T08:12:14;15.90;99.90
12720;DHT22;6424;48.520;11.228;2023-08-30T08:14:55;15.90;99.90
12720;DHT22;6424;48.520;11.228;2023-08-30T08:17:35;15.90;99.90
12720;DHT22;6424;48.520;11.228;2023-08-30T08:20:16;15.90;99.90
12720;DHT22;6424;48.520;11.228;2023-08-30T08:22:57;16.00;99.90
12720;DHT22;6424;48.520;11.228;2023-08-30T08:25:38;16.00;99.90
12720;DHT22;6424;48.520;11.228;2023-08-30T08:28:18;16.00;99.90
12720;DHT22;6424;48.520;11.228;2023-08-30T08:30:59;16.00;99.90
12720;DHT22;6424;48.520;11.228;2023-08-30T08:33:40;16.00;99.90
12720;DHT22;6424;48.520;11.228;2023-08-30T08:36:21;16.00;99.90
12720;DHT22;6424;48.520;11.228;2023-08-30T08:39:02;16.10;99.90
12720;DHT22;6424;48.520;11.228;2023-08-30T08:41:45;16.10;99.90
12720;DHT22;6424;48.520;11.228;2023-08-30T08:44:27;16.10;99.90
12720;DHT22;6424;48.520;11.228;2023-08-30T08:46:56;16.20;99.90
12720;DHT22;6424;48.520;11.228;2023-08-30T08:49:38;16.20;99.90
12720;DHT22;6424;48.520;11.228;2023-08-30T08:52:19;16.20;99.90
12720;DHT22;6424;48.520;11.228;2023-08-30T08:55:01;16.20;99.90
12720;DHT22;6424;48.520;11.228;2023-08-30T08:57:44;16.10;99.90
12720;DHT22;6424;48.520;11.228;2023-08-30T09:00:26;16.10;99.90
12720;DHT22;6424;48.520;11.228;2023-08-30T09:16:34;18.70;99.90
12720;DHT22;6424;48.520;11.228;2023-08-30T09:19:20;18.90;99.90
12720;DHT22;6424;48.520;11.228;2023-08-30T09:22:01;19.00;99.90
12720;DHT22;6424;48.520;11.228;2023-08-30T09:24:41;19.20;99.90
12720;DHT22;6424;48.520;11.228;2023-08-30T09:27:32;19.30;99.90
12720;DHT22;6424;48.520;11.228;2023-08-30T09:30:14;19.50;99.90
12720;DHT22;6424;48.520;11.228;2023-08-30T09:33:03;19.70;99.90
12720;DHT22;6424;48.520;11.228;2023-08-30T09:35:44;19.80;99.90
12720;DHT22;6424;48.520;11.228;2023-08-30T09:38:26;19.60;99.90
12720;DHT22;6424;48.520;11.228;2023-08-30T09:41:02;19.40;99.90
12720;DHT22;6424;48.520;11.228;2023-08-30T09:43:43;19.40;99.90
12720;DHT22;6424;48.520;11.228;2023-08-30T09:46:25;19.40;99.90
12720;DHT22;6424;48.520;11.228;2023-08-30T09:49:05;19.50;99.90
12720;DHT22;6424;48.520;11.228;2023-08-30T09:51:47;19.60;99.90
12720;DHT22;6424;48.520;11.228;2023-08-30T09:54:30;19.60;99.90
12720;DHT22;6424;48.520;11.228;2023-08-30T09:57:13;19.40;99.90
12720;DHT22;6424;48.520;11.228;2023-08-30T09:59:40;19.40;99.90
12720;DHT22;6424;48.520;11.228;2023-08-30T10:02:21;19.40;99.90
12720;DHT22;6424;48.520;11.228;2023-08-30T10:04:48;19.50;99.90
12720;DHT22;6424;48.520;11.228;2023-08-30T10:07:30;19.30;99.90
12720;DHT22;6424;48.520;11.228;2023-08-30T10:10:12;19.20;99.90
12720;DHT22;6424;48.520;11.228;2023-08-30T10:12:53;19.00;99.90
12720;DHT22;6424;48.520;11.228;2023-08-30T10:15:21;18.60;99.90
12720;DHT22;6424;48.520;11.228;2023-08-30T10:18:04;18.30;99.90
12720;DHT22;6424;48.520;11.228;2023-08-30T10:20:47;18.00;99.90
12720;DHT22;6424;48.520;11.228;2023-08-30T10:23:28;17.70;99.90
12720;DHT22;6424;48.520;11.228;2023-08-30T10:26:09;17.50;99.90
12720;DHT22;6424;48.520;11.228;2023-08-30T10:28:53;17.30;99.90
12720;DHT22;6424;48.520;11.228;2023-08-30T10:31:34;17.10;99.90
12720;DHT22;6424;48.520;11.228;2023-08-30T10:34:16;16.90;99.90
12720;DHT22;6424;48.520;11.228;2023-08-30T10:36:59;16.80;99.90
12720;DHT22;6424;48.520;11.228;2023-08-30T10:39:42;16.70;99.90
12720;DHT22;6424;48.520;11.228;2023-08-30T10:42:23;16.70;99.90
12720;DHT22;6424;48.520;11.228;2023-08-30T10:45:06;16.70;99.90
12720;DHT22;6424;48.520;11.228;2023-08-30T10:47:54;16.80;99.90
12720;DHT22;6424;48.520;11.228;2023-08-30T10:50:35;16.90;99.90
12720;DHT22;6424;48.520;11.228;2023-08-30T10:53:17;17.00;99.90
12720;DHT22;6424;48.520;11.228;2023-08-30T10:56:11;17.10;99.90
12720;DHT22;6424;48.520;11.228;2023-08-30T10:58:51;17.20;99.90
12720;DHT22;6424;48.520;11.228;2023-08-30T11:01:32;17.50;99.90
12720;DHT22;6424;48.520;11.228;2023-08-30T11:03:59;17.90;99.90
12720;DHT22;6424;48.520;11.228;2023-08-30T11:06:41;18.10;99.90
12720;DHT22;6424;48.520;11.228;2023-08-30T11:09:24;18.40;99.90
12720;DHT22;6424;48.520;11.228;2023-08-30T11:12:05;18.80;99.90
12720;DHT22;6424;48.520;11.228;2023-08-30T11:14:47;18.90;99.90
12720;DHT22;6424;48.520;11.228;2023-08-30T11:17:28;19.10;99.90
12720;DHT22;6424;48.520;11.228;2023-08-30T11:20:13;19.00;99.90
12720;DHT22;6424;48.520;11.228;2023-08-30T11:22:55;19.00;99.90
12720;DHT22;6424;48.520;11.228;2023-08-30T11:25:36;18.90;99.90
12720;DHT22;6424;48.520;11.228;2023-08-30T11:28:22;18.80;99.90
12720;DHT22;6424;48.520;11.228;2023-08-30T11:31:03;18.70;99.90
12720;DHT22;6424;48.520;11.228;2023-08-30T11:33:58;18.60;99.90
12720;DHT22;6424;48.520;11.228;2023-08-30T11:36:39;18.70;99.90
12720;DHT22;6424;48.520;11.228;2023-08-30T11:39:20;18.80;99.90
12720;DHT22;6424;48.520;11.228;2023-08-30T11:42:03;19.00;99.90
12720;DHT22;6424;48.520;11.228;2023-08-30T11:44:46;19.10;99.90
12720;DHT22;6424;48.520;11.228;2023-08-30T11:47:27;19.00;99.90
12720;DHT22;6424;48.520;11.228;2023-08-30T11:50:08;18.80;99.90
12720;DHT22;6424;48.520;11.228;2023-08-30T11:52:51;18.50;99.90
12720;DHT22;6424;48.520;11.228;2023-08-30T11:55:33;18.50;99.90
12720;DHT22;6424;48.520;11.228;2023-08-30T11:58:13;18.40;99.90
12720;DHT22;6424;48.520;11.228;2023-08-30T12:00:54;18.30;99.90
12720;DHT22;6424;48.520;11.228;2023-08-30T12:03:21;18.20;99.90
12720;DHT22;6424;48.520;11.228;2023-08-30T12:06:02;18.00;99.90
12720;DHT22;6424;48.520;11.228;2023-08-30T12:08:42;17.80;99.90
12720;DHT22;6424;48.520;11.228;2023-08-30T12:11:23;17.60;99.90
12720;DHT22;6424;48.520;11.228;2023-08-30T12:14:04;17.40;99.90
12720;DHT22;6424;48.520;11.228;2023-08-30T12:16:45;17.30;99.90
12720;DHT22;6424;48.520;11.228;2023-08-30T12:19:28;17.30;99.90
12720;DHT22;6424;48.520;11.228;2023-08-30T12:21:54;17.30;99.90
12720;DHT22;6424;48.520;11.228;2023-08-30T12:24:43;17.50;99.90
12720;DHT22;6424;48.520;11.228;2023-08-30T12:27:24;17.90;99.90
12720;DHT22;6424;48.520;11.228;2023-08-30T12:30:05;18.30;99.90
12720;DHT22;6424;48.520;11.228;2023-08-30T12:32:48;18.70;99.90
12720;DHT22;6424;48.520;11.228;2023-08-30T12:35:29;19.20;99.90
12720;DHT22;6424;48.520;11.228;2023-08-30T12:38:10;19.60;99.90
12720;DHT22;6424;48.520;11.228;2023-08-30T12:41:00;19.90;99.90
12720;DHT22;6424;48.520;11.228;2023-08-30T12:43:41;20.00;99.90
12720;DHT22;6424;48.520;11.228;2023-08-30T12:46:22;20.10;99.90
12720;DHT22;6424;48.520;11.228;2023-08-30T12:48:48;20.20;99.90
12720;DHT22;6424;48.520;11.228;2023-08-30T12:51:28;20.20;99.90
12720;DHT22;6424;48.520;11.228;2023-08-30T12:54:11;20.20;99.90
12720;DHT22;6424;48.520;11.228;2023-08-30T12:56:51;20.20;99.90
12720;DHT22;6424;48.520;11.228;2023-08-30T12:59:32;20.30;99.90
12720;DHT22;6424;48.520;11.228;2023-08-30T13:02:13;20.20;99.90
12720;DHT22;6424;48.520;11.228;2023-08-30T13:04:54;20.10;99.90
12720;DHT22;6424;48.520;11.228;2023-08-30T13:07:34;20.10;99.90
12720;DHT22;6424;48.520;11.228;2023-08-30T13:10:15;20.10;99.90
12720;DHT22;6424;48.520;11.228;2023-08-30T13:12:57;20.10;99.90
12720;DHT22;6424;48.520;11.228;2023-08-30T13:15:38;20.20;99.90
12720;DHT22;6424;48.520;11.228;2023-08-30T13:18:04;20.30;99.90
12720;DHT22;6424;48.520;11.228;2023-08-30T13:20:44;20.50;99.90
12720;DHT22;6424;48.520;11.228;2023-08-30T13:23:25;20.50;99.90
12720;DHT22;6424;48.520;11.228;2023-08-30T13:26:06;20.40;99.90
12720;DHT22;6424;48.520;11.228;2023-08-30T13:28:47;20.20;99.90
12720;DHT22;6424;48.520;11.228;2023-08-30T13:31:13;20.00;99.90
12720;DHT22;6424;48.520;11.228;2023-08-30T13:33:53;19.80;99.90
12720;DHT22;6424;48.520;11.228;2023-08-30T13:36:34;19.60;99.90
12720;DHT22;6424;48.520;11.228;2023-08-30T13:39:17;19.70;99.90
12720;DHT22;6424;48.520;11.228;2023-08-30T13:42:00;19.80;99.90
12720;DHT22;6424;48.520;11.228;2023-08-30T13:44:40;19.90;99.90
12720;DHT22;6424;48.520;11.228;2023-08-30T13:47:23;19.90;99.90
12720;DHT22;6424;48.520;11.228;2023-08-30T13:50:05;19.90;99.90
12720;DHT22;6424;48.520;11.228;2023-08-30T13:52:46;20.00;99.90
12720;DHT22;6424;48.520;11.228;2023-08-30T13:55:28;20.00;99.90
12720;DHT22;6424;48.520;11.228;2023-08-30T13:58:09;20.10;99.90
12720;DHT22;6424;48.520;11.228;2023-08-30T14:00:49;20.10;99.90
12720;DHT22;6424;48.520;11.228;2023-08-30T14:03:30;19.90;99.90
12720;DHT22;6424;48.520;11.228;2023-08-30T14:06:11;19.90;99.90
12720;DHT22;6424;48.520;11.228;2023-08-30T14:08:52;19.90;99.90
12720;DHT22;6424;48.520;11.228;2023-08-30T14:11:18;19.90;99.90
12720;DHT22;6424;48.520;11.228;2023-08-30T14:13:58;19.90;99.90
12720;DHT22;6424;48.520;11.228;2023-08-30T14:16:39;19.90;99.90
12720;DHT22;6424;48.520;11.228;2023-08-30T14:19:20;20.00;99.90
12720;DHT22;6424;48.520;11.228;2023-08-30T14:21:46;20.00;99.90
12720;DHT22;6424;48.520;11.228;2023-08-30T14:24:28;20.00;99.90
12720;DHT22;6424;48.520;11.228;2023-08-30T14:27:08;20.00;99.90
12720;DHT22;6424;48.520;11.228;2023-08-30T14:29:49;19.90;99.90
12720;DHT22;6424;48.520;11.228;2023-08-30T14:32:30;19.90;99.90
12720;DHT22;6424;48.520;11.228;2023-08-30T14:35:10;19.80;99.90
12720;DHT22;6424;48.520;11.228;2023-08-30T14:37:51;19.80;99.90
12720;DHT22;6424;48.520;11.228;2023-08-30T14:40:32;19.70;99.90
12720;DHT22;6424;48.520;11.228;2023-08-30T14:43:13;19.70;99.90
12720;DHT22;6424;48.520;11.228;2023-08-30T14:46:04;19.70;99.90
12720;DHT22;6424;48.520;11.228;2023-08-30T14:48:46;19.70;99.90
12720;DHT22;6424;48.520;11.228;2023-08-30T14:51:26;19.70;99.90
12720;DHT22;6424;48.520;11.228;2023-08-30T14:54:07;19.60;99.90
12720;DHT22;6424;48.520;11.228;2023-08-30T14:56:48;19.50;99.90
12720;DHT22;6424;48.520;11.228;2023-08-30T14:59:29;19.50;99.90
12720;DHT22;6424;48.520;11.228;2023-08-30T15:02:10;19.50;99.90
12720;DHT22;6424;48.520;11.228;2023-08-30T15:04:51;19.50;99.90
12720;DHT22;6424;48.520;11.228;2023-08-30T15:07:31;19.50;99.90
12720;DHT22;6424;48.520;11.228;2023-08-30T15:10:12;18.90;99.90
12720;DHT22;6424;48.520;11.228;2023-08-30T15:12:53;18.60;99.90
12720;DHT22;6424;48.520;11.228;2023-08-30T15:15:19;18.30;99.90
12720;DHT22;6424;48.520;11.228;2023-08-30T15:17:59;18.20;99.90
12720;DHT22;6424;48.520;11.228;2023-08-30T15:20:25;18.00;99.90
12720;DHT22;6424;48.520;11.228;2023-08-30T15:23:06;17.70;99.90
12720;DHT22;6424;48.520;11.228;2023-08-30T15:25:47;17.60;99.90
12720;DHT22;6424;48.520;11.228;2023-08-30T15:28:28;17.60;99.90
12720;DHT22;6424;48.520;11.228;2023-08-30T15:31:09;17.70;99.90
12720;DHT22;6424;48.520;11.228;2023-08-30T15:33:35;17.70;99.90
12720;DHT22;6424;48.520;11.228;2023-08-30T15:36:17;17.80;99.90
12720;DHT22;6424;48.520;11.228;2023-08-30T15:38:57;17.70;99.90
12720;DHT22;6424;48.520;11.228;2023-08-30T15:41:23;17.60;99.90
12720;DHT22;6424;48.520;11.228;2023-08-30T15:44:04;17.60;99.90
12720;DHT22;6424;48.520;11.228;2023-08-30T15:46:45;17.80;99.90
12720;DHT22;6424;48.520;11.228;2023-08-30T15:49:25;17.80;99.90
12720;DHT22;6424;48.520;11.228;2023-08-30T15:52:06;17.80;99.90
12720;DHT22;6424;48.520;11.228;2023-08-30T15:54:32;17.90;99.90
12720;DHT22;6424;48.520;11.228;2023-08-30T15:57:13;17.80;99.90
12720;DHT22;6424;48.520;11.228;2023-08-30T15:59:38;17.90;99.90
12720;DHT22;6424;48.520;11.228;2023-08-30T16:02:19;17.80;99.90
12720;DHT22;6424;48.520;11.228;2023-08-30T16:05:00;17.80;99.90
12720;DHT22;6424;48.520;11.228;2023-08-30T16:07:40;17.90;99.90
12720;DHT22;6424;48.520;11.228;2023-08-30T16:10:21;17.90;99.90
12720;DHT22;6424;48.520;11.228;2023-08-30T16:13:02;17.90;99.90
12720;DHT22;6424;48.520;11.228;2023-08-30T16:15:44;17.90;99.90
12720;DHT22;6424;48.520;11.228;2023-08-30T16:18:25;18.00;99.90
12720;DHT22;6424;48.520;11.228;2023-08-30T16:21:06;18.00;99.90
12720;DHT22;6424;48.520;11.228;2023-08-30T16:23:46;18.00;99.90
12720;DHT22;6424;48.520;11.228;2023-08-30T16:26:27;18.00;99.90
12720;DHT22;6424;48.520;11.228;2023-08-30T16:29:08;18.00;99.90
12720;DHT22;6424;48.520;11.228;2023-08-30T16:31:49;18.00;99.90
12720;DHT22;6424;48.520;11.228;2023-08-30T16:34:32;18.00;99.90
12720;DHT22;6424;48.520;11.228;2023-08-30T16:37:13;18.00;99.90
12720;DHT22;6424;48.520;11.228;2023-08-30T16:39:54;18.00;99.90
12720;DHT22;6424;48.520;11.228;2023-08-30T16:42:35;18.00;99.90
12720;DHT22;6424;48.520;11.228;2023-08-30T16:45:15;18.00;99.90
12720;DHT22;6424;48.520;11.228;2023-08-30T16:47:56;18.00;99.90
12720;DHT22;6424;48.520;11.228;2023-08-30T16:50:37;18.00;99.90
12720;DHT22;6424;48.520;11.228;2023-08-30T16:53:18;17.90;99.90
12720;DHT22;6424;48.520;11.228;2023-08-30T16:56:02;17.90;99.90
12720;DHT22;6424;48.520;11.228;2023-08-30T16:58:43;17.90;99.90
12720;DHT22;6424;48.520;11.228;2023-08-30T17:01:24;17.80;99.90
12720;DHT22;6424;48.520;11.228;2023-08-30T17:04:05;17.70;99.90